Huvudsida
METAR-TAF:

METAR-TAF

Flygplatser :

Bračs flygplats

Brač, Kroatien

latitud: 43-17-09N, longitud: 016-40-47E, höjd: 541 m

Aktuellt väderrapport

Denna rapport gjordes för 21 timmar och 38 minuter sedan, klockan 14:00 UTC
Vind 9 kt från sydväst
Temperatur 27°C
Fuktighet 37%
Tryck 1015 hPa
Sikt 10 km eller mer
Få moln på en höjd av 3000 ft

METAR: LDSB 191400Z 22009KT 9999 FEW030 27/11 Q1015

Tid: 13:38 (11:38 UTC)

Väderprognos

Denna rapport gjordes för 20 timmar och 34 minuter sedan, klockan 15:04 UTC
Prognos gäller från 19 kl. 13 UTC till 20 kl. 12 UTC
Vind 10 kt från sydväst
Sikt 10 km eller mer
Inga moln under 1 500 m eller inga cumulonimbus
Blir
från 19 kl. 20 UTC till 19 kl. 22 UTC
Vind 2 kt varierande vindriktning
Blir
från 20 kl. 08 UTC till 20 kl. 10 UTC
Vind 10 kt från väst/sydväst

TAF: LDSB 191504Z 1913/2012 23010KT CAVOK TX27/1913Z TN20/2003Z BECMG 1920/1922 VRB02KT BECMG 2008/2010 24010KT

Aktuella väderrapporter och prognoser från 4000 flygplatser (METAR- och TAF-rapporter).

De tillgängliga stationerna syns som gula och röda prickar på kartan.

För musen över prickarna för att se namnen på stationerna.

Klicka sedan för att få väderrapporter och prognoser.

För att ändra kartan: Klicka på de gröna knapparna med ett svart kors på för att zooma in; den gröna knappen med ett streck på för att zooma ut; eller på de gröna pilarna för angränsande kartor.


METAR-TAF: